Time;durP1;ratioP1;P1;durP2;ratioP2;P2;SDS_P1;SDS_P2;PMS_P1;PMS_P2;Temp;Humidity;BMP_temperature;BMP_pressure;BME280_temperature;BME280_humidity;BME280_pressure;Samples;Min_cycle;Max_cycle;Signal;HPM_P1;HPM_P2
2023/08/09 00:00:41;;;;;;;10.45;2.47;;;;;;;;;;4997716;28;20098;-73
2023/08/09 00:03:09;;;;;;;14.65;2.80;;;;;;;;;;4997350;28;20128;-72
2023/08/09 00:05:34;;;;;;;13.93;3.67;;;;;;;;;;5017143;28;20047;-72
2023/08/09 00:08:00;;;;;;;13.07;2.85;;;;;;;;;;5021464;28;20041;-73
2023/08/09 00:10:25;;;;;;;14.02;2.92;;;;;;;;;;5020184;28;21042;-73
2023/08/09 00:12:51;;;;;;;14.48;2.83;;;;;;;;;;5020940;28;20037;-74
2023/08/09 00:15:16;;;;;;;8.20;2.55;;;;;;;;;;5018516;28;20112;-73
2023/08/09 00:17:41;;;;;;;8.15;2.80;;;;;;;;;;5006862;28;20125;-73
2023/08/09 00:20:08;;;;;;;12.68;2.72;;;;;;;;;;5019635;28;20032;-72
2023/08/09 00:22:33;;;;;;;8.70;2.42;;;;;;;;;;5005248;28;20071;-72
2023/08/09 00:24:59;;;;;;;10.50;2.92;;;;;;;;;;5020790;28;20067;-72
2023/08/09 00:27:27;;;;;;;9.70;2.83;;;;;;;;;;5016927;28;20047;-73
2023/08/09 00:29:52;;;;;;;14.75;2.95;;;;;;;;;;5017049;28;20044;-74
2023/08/09 00:32:18;;;;;;;9.15;2.80;;;;;;;;;;5017870;28;20037;-74
2023/08/09 00:34:43;;;;;;;15.20;2.97;;;;;;;;;;5017122;28;20037;-73
2023/08/09 00:37:08;;;;;;;13.00;2.72;;;;;;;;;;5016214;28;20032;-71
2023/08/09 00:39:35;;;;;;;10.93;2.90;;;;;;;;;;5032932;28;20033;-72
2023/08/09 00:42:00;;;;;;;10.85;2.80;;;;;;;;;;5025247;28;20542;-72
2023/08/09 00:44:26;;;;;;;13.00;2.70;;;;;;;;;;5049211;28;20149;-73
2023/08/09 00:46:53;;;;;;;11.57;2.85;;;;;;;;;;5018218;28;20033;-73
2023/08/09 00:49:19;;;;;;;9.27;2.35;;;;;;;;;;5016604;28;20055;-74
2023/08/09 00:51:45;;;;;;;13.68;2.83;;;;;;;;;;5017993;28;20037;-72
2023/08/09 00:54:10;;;;;;;12.70;3.30;;;;;;;;;;5018382;28;20036;-73
2023/08/09 00:56:36;;;;;;;7.28;2.30;;;;;;;;;;5005802;28;20041;-73
2023/08/09 00:59:02;;;;;;;8.73;2.85;;;;;;;;;;5017841;28;20040;-74
2023/08/09 01:01:27;;;;;;;7.97;2.67;;;;;;;;;;5015383;28;20044;-72
2023/08/09 01:03:55;;;;;;;16.33;2.88;;;;;;;;;;5047271;28;20146;-73
2023/08/09 01:06:39;;;;;;;14.15;3.03;;;;;;;;;;5017878;28;20920;-72
2023/08/09 01:09:14;;;;;;;12.07;2.63;;;;;;;;;;5016209;28;20041;-72
2023/08/09 01:11:52;;;;;;;10.80;2.60;;;;;;;;;;5016737;28;20067;-72
2023/08/09 01:14:18;;;;;;;7.28;2.25;;;;;;;;;;5032155;28;20038;-73
2023/08/09 01:16:45;;;;;;;5.18;2.55;;;;;;;;;;5016373;28;20098;-73
2023/08/09 01:19:19;;;;;;;10.98;2.58;;;;;;;;;;5019351;28;20036;-72
2023/08/09 01:21:44;;;;;;;13.00;2.72;;;;;;;;;;5014050;28;20034;-73
2023/08/09 01:24:12;;;;;;;13.27;2.78;;;;;;;;;;5016818;28;21066;-73
2023/08/09 01:26:39;;;;;;;12.38;2.90;;;;;;;;;;5014439;28;20041;-73
2023/08/09 01:29:04;;;;;;;9.55;2.28;;;;;;;;;;5015162;28;20167;-73
2023/08/09 01:31:30;;;;;;;8.65;2.50;;;;;;;;;;5017039;28;20036;-73
2023/08/09 01:33:55;;;;;;;8.48;2.40;;;;;;;;;;5018511;28;20044;-71
2023/08/09 01:36:23;;;;;;;8.10;1.90;;;;;;;;;;5016229;28;20036;-73
2023/08/09 01:38:54;;;;;;;6.22;2.05;;;;;;;;;;5016436;28;20025;-72
2023/08/09 01:41:23;;;;;;;9.00;2.33;;;;;;;;;;5013981;28;20039;-72
2023/08/09 01:43:49;;;;;;;8.45;2.70;;;;;;;;;;5014072;28;20042;-71
2023/08/09 01:46:14;;;;;;;11.80;2.80;;;;;;;;;;5022324;28;20043;-72
2023/08/09 01:48:42;;;;;;;17.30;2.70;;;;;;;;;;5034269;28;20041;-72
2023/08/09 01:51:08;;;;;;;11.35;3.00;;;;;;;;;;5015003;28;20264;-73
2023/08/09 01:53:33;;;;;;;11.57;2.40;;;;;;;;;;5015389;28;20037;-73
2023/08/09 01:55:58;;;;;;;9.02;2.58;;;;;;;;;;5014766;28;20706;-73
2023/08/09 01:58:24;;;;;;;9.82;2.60;;;;;;;;;;5046377;28;20128;-71
2023/08/09 02:00:49;;;;;;;5.32;2.30;;;;;;;;;;5012702;28;20044;-72
2023/08/09 02:03:15;;;;;;;9.18;2.47;;;;;;;;;;5013728;28;20029;-72
2023/08/09 02:05:43;;;;;;;7.20;2.08;;;;;;;;;;5027221;28;20028;-72
2023/08/09 02:08:08;;;;;;;8.75;2.40;;;;;;;;;;5005663;28;20036;-74
2023/08/09 02:10:37;;;;;;;10.35;2.58;;;;;;;;;;5015311;28;20056;-72
2023/08/09 02:13:02;;;;;;;9.63;2.38;;;;;;;;;;5013014;28;20047;-74
2023/08/09 02:15:28;;;;;;;9.90;2.90;;;;;;;;;;5014135;28;20029;-73
2023/08/09 02:17:56;;;;;;;7.40;2.40;;;;;;;;;;5016069;28;20493;-74
2023/08/09 02:20:21;;;;;;;9.55;2.53;;;;;;;;;;5017839;28;20037;-74
2023/08/09 02:22:47;;;;;;;10.80;2.60;;;;;;;;;;5014937;28;20045;-74
2023/08/09 02:25:13;;;;;;;12.10;2.60;;;;;;;;;;5017958;28;20135;-74
2023/08/09 02:27:39;;;;;;;14.90;3.25;;;;;;;;;;5017639;28;20176;-74
2023/08/09 02:30:06;;;;;;;5.18;2.63;;;;;;;;;;5015999;28;20682;-74
2023/08/09 02:32:32;;;;;;;7.60;2.55;;;;;;;;;;5017571;28;20033;-74
2023/08/09 02:34:57;;;;;;;8.05;2.47;;;;;;;;;;5014660;28;20040;-72
2023/08/09 02:37:25;;;;;;;9.48;3.33;;;;;;;;;;5017611;28;21053;-74
2023/08/09 02:39:53;;;;;;;10.02;3.17;;;;;;;;;;5014296;28;20044;-72
2023/08/09 02:42:18;;;;;;;10.07;2.80;;;;;;;;;;5047140;28;20041;-72
2023/08/09 02:44:44;;;;;;;13.95;2.83;;;;;;;;;;5015924;28;20067;-73
2023/08/09 02:47:09;;;;;;;8.18;2.70;;;;;;;;;;5015931;28;20029;-74
2023/08/09 02:49:37;;;;;;;11.57;3.13;;;;;;;;;;5029208;28;20049;-72
2023/08/09 02:52:02;;;;;;;18.45;2.95;;;;;;;;;;5018090;28;20099;-74
2023/08/09 02:54:28;;;;;;;9.23;3.00;;;;;;;;;;5032670;28;20033;-73
2023/08/09 02:56:53;;;;;;;11.00;2.20;;;;;;;;;;5013939;28;20760;-73
2023/08/09 02:59:18;;;;;;;7.32;2.47;;;;;;;;;;5029603;28;20033;-73
2023/08/09 03:01:44;;;;;;;9.43;3.10;;;;;;;;;;4991165;28;20052;-74
2023/08/09 03:04:09;;;;;;;12.38;3.05;;;;;;;;;;5015520;28;20671;-73
2023/08/09 03:06:35;;;;;;;10.65;3.08;;;;;;;;;;5004218;28;20138;-74
2023/08/09 03:09:01;;;;;;;11.43;2.78;;;;;;;;;;5013185;28;20528;-74
2023/08/09 03:11:27;;;;;;;6.10;2.63;;;;;;;;;;5014575;28;20055;-73
2023/08/09 03:13:52;;;;;;;7.75;2.70;;;;;;;;;;5013405;28;20037;-73
2023/08/09 03:16:21;;;;;;;9.57;2.40;;;;;;;;;;5012169;28;20592;-73
2023/08/09 03:18:46;;;;;;;9.55;3.08;;;;;;;;;;5014976;28;20055;-72
2023/08/09 03:21:13;;;;;;;9.65;2.88;;;;;;;;;;5015542;28;20040;-72
2023/08/09 03:23:38;;;;;;;17.13;3.38;;;;;;;;;;5010308;28;20036;-72
2023/08/09 03:26:04;;;;;;;7.47;2.70;;;;;;;;;;5024089;28;20169;-73
2023/08/09 03:28:29;;;;;;;11.20;2.85;;;;;;;;;;5013702;28;20033;-73
2023/08/09 03:30:55;;;;;;;8.65;2.95;;;;;;;;;;5007252;28;20132;-71
2023/08/09 03:33:20;;;;;;;10.32;2.65;;;;;;;;;;5014026;28;20045;-73
2023/08/09 03:35:45;;;;;;;7.80;2.50;;;;;;;;;;5016470;28;20112;-73
2023/08/09 03:38:11;;;;;;;9.55;2.95;;;;;;;;;;5015696;28;20033;-74
2023/08/09 03:40:36;;;;;;;7.93;2.70;;;;;;;;;;5010898;28;21010;-73
2023/08/09 03:43:02;;;;;;;6.97;2.13;;;;;;;;;;5017832;28;20033;-72
2023/08/09 03:45:27;;;;;;;8.35;3.00;;;;;;;;;;5012847;28;20687;-72
2023/08/09 03:47:54;;;;;;;9.80;2.97;;;;;;;;;;5018288;28;20021;-72
2023/08/09 03:50:20;;;;;;;7.07;2.33;;;;;;;;;;5030497;28;20048;-74
2023/08/09 03:52:45;;;;;;;14.23;3.08;;;;;;;;;;5012041;28;20332;-73
2023/08/09 03:55:11;;;;;;;7.68;2.55;;;;;;;;;;5013164;28;20045;-72
2023/08/09 03:57:38;;;;;;;5.57;2.65;;;;;;;;;;5014463;28;20052;-74
2023/08/09 04:00:04;;;;;;;13.88;2.80;;;;;;;;;;5014252;28;20664;-74
2023/08/09 04:02:30;;;;;;;9.98;3.38;;;;;;;;;;5015664;28;20040;-74
2023/08/09 04:04:55;;;;;;;13.45;2.90;;;;;;;;;;5017424;28;20037;-73
2023/08/09 04:07:20;;;;;;;13.85;3.35;;;;;;;;;;5011738;28;20112;-73
2023/08/09 04:09:46;;;;;;;11.82;2.90;;;;;;;;;;5043634;28;20094;-73
2023/08/09 04:12:11;;;;;;;10.27;2.53;;;;;;;;;;5030293;28;20041;-73
2023/08/09 04:14:37;;;;;;;9.80;2.78;;;;;;;;;;5020874;28;20029;-74
2023/08/09 04:17:04;;;;;;;11.90;3.00;;;;;;;;;;5013602;28;20044;-73
2023/08/09 04:19:30;;;;;;;9.57;2.80;;;;;;;;;;5043924;28;20069;-73
2023/08/09 04:21:55;;;;;;;10.55;2.97;;;;;;;;;;5012274;28;20573;-74
2023/08/09 04:24:21;;;;;;;10.95;3.13;;;;;;;;;;5011981;28;21071;-73
2023/08/09 04:26:46;;;;;;;10.52;3.33;;;;;;;;;;5013370;28;20050;-73
2023/08/09 04:29:11;;;;;;;9.20;2.72;;;;;;;;;;5011375;28;20079;-73
2023/08/09 04:31:37;;;;;;;6.22;2.60;;;;;;;;;;5013486;28;20131;-74
2023/08/09 04:34:02;;;;;;;7.82;2.53;;;;;;;;;;5019399;28;20083;-74
2023/08/09 04:36:28;;;;;;;12.43;2.78;;;;;;;;;;5012843;28;20041;-74
2023/08/09 04:38:53;;;;;;;11.07;2.95;;;;;;;;;;5012132;28;20799;-73
2023/08/09 04:41:21;;;;;;;9.32;2.80;;;;;;;;;;5003338;28;20041;-74
2023/08/09 04:43:46;;;;;;;8.15;3.03;;;;;;;;;;5044949;28;20048;-74
2023/08/09 04:46:12;;;;;;;13.45;3.13;;;;;;;;;;5018894;28;20091;-74
2023/08/09 04:48:38;;;;;;;11.73;2.97;;;;;;;;;;5017690;28;20040;-74
2023/08/09 04:51:04;;;;;;;7.80;2.60;;;;;;;;;;5016635;28;20033;-74
2023/08/09 04:53:29;;;;;;;13.18;3.13;;;;;;;;;;5019292;28;20862;-73
2023/08/09 04:55:55;;;;;;;9.20;2.80;;;;;;;;;;5017988;28;20025;-72
2023/08/09 04:58:20;;;;;;;13.05;2.80;;;;;;;;;;5019017;28;20040;-72
2023/08/09 05:00:45;;;;;;;8.02;2.45;;;;;;;;;;5015739;28;20055;-72
2023/08/09 05:03:11;;;;;;;16.85;3.08;;;;;;;;;;5046667;28;20119;-76
2023/08/09 05:05:37;;;;;;;11.43;2.67;;;;;;;;;;5018827;28;20563;-77
2023/08/09 05:08:02;;;;;;;10.95;2.83;;;;;;;;;;5018162;28;20033;-76
2023/08/09 05:10:27;;;;;;;14.43;2.72;;;;;;;;;;5018332;28;20060;-77
2023/08/09 05:12:53;;;;;;;14.15;2.95;;;;;;;;;;5039044;28;20048;-76
2023/08/09 05:15:18;;;;;;;12.40;3.25;;;;;;;;;;4996144;28;20083;-76
2023/08/09 05:17:43;;;;;;;13.48;3.38;;;;;;;;;;4995021;28;20034;-75
2023/08/09 05:20:10;;;;;;;11.00;3.50;;;;;;;;;;5003780;28;20033;-77
2023/08/09 05:22:36;;;;;;;11.13;2.42;;;;;;;;;;5000462;28;20038;-76
2023/08/09 05:25:04;;;;;;;14.05;2.58;;;;;;;;;;5016809;28;20036;-77
2023/08/09 05:27:29;;;;;;;10.05;2.45;;;;;;;;;;5009626;28;20044;-76
2023/08/09 05:29:55;;;;;;;10.10;2.42;;;;;;;;;;5045434;28;20060;-76
2023/08/09 05:32:23;;;;;;;12.82;2.53;;;;;;;;;;5017646;28;20041;-76
2023/08/09 05:34:51;;;;;;;9.20;2.60;;;;;;;;;;5014639;28;20037;-76
2023/08/09 05:37:16;;;;;;;12.30;2.33;;;;;;;;;;5017508;28;20037;-76
2023/08/09 05:39:41;;;;;;;13.10;2.85;;;;;;;;;;5024244;28;20033;-74
2023/08/09 05:42:07;;;;;;;13.93;2.55;;;;;;;;;;5024727;28;20155;-74
2023/08/09 05:44:32;;;;;;;11.23;2.13;;;;;;;;;;5030468;28;20112;-73
2023/08/09 05:46:58;;;;;;;7.65;2.20;;;;;;;;;;5014995;28;20029;-75
2023/08/09 05:49:25;;;;;;;9.10;2.75;;;;;;;;;;5016326;28;22215;-74
2023/08/09 05:51:51;;;;;;;9.43;2.65;;;;;;;;;;5015750;28;20025;-74
2023/08/09 05:54:16;;;;;;;10.00;1.98;;;;;;;;;;5023302;28;20037;-74
2023/08/09 05:56:42;;;;;;;9.20;2.63;;;;;;;;;;5050937;28;20048;-74
2023/08/09 05:59:07;;;;;;;9.43;2.70;;;;;;;;;;5018616;28;20106;-74
2023/08/09 06:01:35;;;;;;;10.45;2.90;;;;;;;;;;5049208;28;20522;-76
2023/08/09 06:04:00;;;;;;;14.90;2.60;;;;;;;;;;5048637;28;20095;-75
2023/08/09 06:06:26;;;;;;;14.32;2.60;;;;;;;;;;5017783;28;20051;-74
2023/08/09 06:08:53;;;;;;;11.25;2.53;;;;;;;;;;5019855;28;20037;-76
2023/08/09 06:11:19;;;;;;;16.80;2.78;;;;;;;;;;5019040;28;20060;-75
2023/08/09 06:13:45;;;;;;;11.70;2.78;;;;;;;;;;5016847;28;20618;-75
2023/08/09 06:16:10;;;;;;;11.25;2.13;;;;;;;;;;5016111;28;20040;-74
2023/08/09 06:18:36;;;;;;;8.48;2.13;;;;;;;;;;5024412;28;20049;-75
2023/08/09 06:21:01;;;;;;;10.57;2.53;;;;;;;;;;5016604;28;20033;-74
2023/08/09 06:23:27;;;;;;;13.10;2.15;;;;;;;;;;5014219;28;20079;-73
2023/08/09 06:25:53;;;;;;;6.88;2.25;;;;;;;;;;5015708;28;20817;-73
2023/08/09 06:28:19;;;;;;;11.85;2.65;;;;;;;;;;5019424;28;20037;-75
2023/08/09 06:30:44;;;;;;;10.48;2.20;;;;;;;;;;5016762;28;20814;-74
2023/08/09 06:33:10;;;;;;;19.77;2.63;;;;;;;;;;5014012;28;20091;-75
2023/08/09 06:35:38;;;;;;;6.40;1.80;;;;;;;;;;5044070;28;20092;-74
2023/08/09 06:38:03;;;;;;;11.82;2.10;;;;;;;;;;5046880;28;20978;-73
2023/08/09 06:40:29;;;;;;;11.38;2.15;;;;;;;;;;5014709;28;20383;-73
2023/08/09 06:42:54;;;;;;;8.32;2.22;;;;;;;;;;5014603;28;20037;-74
2023/08/09 06:45:20;;;;;;;8.10;2.35;;;;;;;;;;5015695;28;20387;-73
2023/08/09 06:47:45;;;;;;;13.27;2.08;;;;;;;;;;5015249;28;20280;-74
2023/08/09 06:50:10;;;;;;;8.40;2.22;;;;;;;;;;5018015;28;20668;-73
2023/08/09 06:52:36;;;;;;;11.80;2.40;;;;;;;;;;5020630;28;20110;-73
2023/08/09 06:55:02;;;;;;;14.13;2.25;;;;;;;;;;5016979;28;20037;-75
2023/08/09 06:57:27;;;;;;;11.32;2.53;;;;;;;;;;5015389;28;20461;-73
2023/08/09 06:59:54;;;;;;;11.50;2.08;;;;;;;;;;5015452;28;20037;-73
2023/08/09 07:02:20;;;;;;;6.80;2.10;;;;;;;;;;5050129;28;20266;-73
2023/08/09 07:04:46;;;;;;;7.68;1.85;;;;;;;;;;5022781;28;20041;-74
2023/08/09 07:07:11;;;;;;;8.75;2.10;;;;;;;;;;5042931;28;20051;-74
2023/08/09 07:09:37;;;;;;;7.45;1.90;;;;;;;;;;5019226;28;20136;-72
2023/08/09 07:12:02;;;;;;;8.15;2.20;;;;;;;;;;5047692;28;20362;-73
2023/08/09 07:14:27;;;;;;;10.02;2.10;;;;;;;;;;5013663;28;20044;-72
2023/08/09 07:16:53;;;;;;;11.15;2.20;;;;;;;;;;5016677;28;20114;-73
2023/08/09 07:19:18;;;;;;;15.57;2.30;;;;;;;;;;5049561;28;20043;-73
2023/08/09 07:21:43;;;;;;;9.75;2.22;;;;;;;;;;5045753;28;20041;-73
2023/08/09 07:24:09;;;;;;;9.23;2.42;;;;;;;;;;5011931;28;20032;-73
2023/08/09 07:26:34;;;;;;;9.00;2.17;;;;;;;;;;5010974;28;20502;-72
2023/08/09 07:29:00;;;;;;;12.00;2.40;;;;;;;;;;5017458;28;20047;-72
2023/08/09 07:31:26;;;;;;;14.00;2.38;;;;;;;;;;5021598;28;20576;-72
2023/08/09 07:33:51;;;;;;;11.98;2.33;;;;;;;;;;5010191;28;20036;-73
2023/08/09 07:36:17;;;;;;;11.38;2.33;;;;;;;;;;5048732;28;20044;-77
2023/08/09 07:38:43;;;;;;;9.30;2.55;;;;;;;;;;5044735;28;20505;-76
2023/08/09 07:41:09;;;;;;;14.48;2.78;;;;;;;;;;5014403;28;20044;-72
2023/08/09 07:43:39;;;;;;;13.98;2.80;;;;;;;;;;5015229;28;20121;-72
2023/08/09 07:46:05;;;;;;;11.75;3.00;;;;;;;;;;5015121;28;21076;-71
2023/08/09 07:48:31;;;;;;;10.75;2.55;;;;;;;;;;5014247;28;20593;-71
2023/08/09 07:50:57;;;;;;;14.27;2.83;;;;;;;;;;5018138;28;20037;-70
2023/08/09 07:53:22;;;;;;;9.88;2.33;;;;;;;;;;5016831;28;20029;-70
2023/08/09 07:55:48;;;;;;;8.57;2.45;;;;;;;;;;5014543;28;20037;-70
2023/08/09 07:58:14;;;;;;;9.15;1.95;;;;;;;;;;5017887;28;20043;-70
2023/08/09 08:00:39;;;;;;;7.60;2.30;;;;;;;;;;5014236;28;20575;-71
2023/08/09 08:03:06;;;;;;;9.27;2.08;;;;;;;;;;5018009;28;20144;-71
2023/08/09 08:05:32;;;;;;;6.00;2.17;;;;;;;;;;5021794;28;20465;-71
2023/08/09 08:08:00;;;;;;;7.25;2.08;;;;;;;;;;5020515;28;20052;-70
2023/08/09 08:10:26;;;;;;;9.68;2.40;;;;;;;;;;5014164;28;20106;-69
2023/08/09 08:12:51;;;;;;;7.50;2.08;;;;;;;;;;5014461;28;20033;-69
2023/08/09 08:15:16;;;;;;;8.60;2.80;;;;;;;;;;5014797;28;20245;-70
2023/08/09 08:17:42;;;;;;;12.93;2.30;;;;;;;;;;5012798;28;20048;-74
2023/08/09 08:20:15;;;;;;;9.38;2.65;;;;;;;;;;5021347;28;20188;-73
2023/08/09 08:22:41;;;;;;;7.10;2.75;;;;;;;;;;5024471;28;20029;-74
2023/08/09 08:25:07;;;;;;;12.55;3.10;;;;;;;;;;5025626;28;21328;-73
2023/08/09 08:27:35;;;;;;;8.68;2.90;;;;;;;;;;5019581;28;20048;-74
2023/08/09 08:30:04;;;;;;;11.70;2.72;;;;;;;;;;5019274;28;20087;-74
2023/08/09 08:32:30;;;;;;;10.30;3.22;;;;;;;;;;5017473;28;20080;-73
2023/08/09 08:34:56;;;;;;;9.75;3.03;;;;;;;;;;5021210;28;20036;-72
2023/08/09 08:37:22;;;;;;;11.80;3.40;;;;;;;;;;5020488;28;20940;-72
2023/08/09 08:39:47;;;;;;;10.57;3.50;;;;;;;;;;5021617;28;20126;-73
2023/08/09 08:42:13;;;;;;;9.38;3.20;;;;;;;;;;5022864;28;20513;-75
2023/08/09 08:44:39;;;;;;;7.32;3.05;;;;;;;;;;5020207;28;20037;-73
2023/08/09 08:47:05;;;;;;;7.90;2.80;;;;;;;;;;5024445;28;20482;-76
2023/08/09 08:49:32;;;;;;;7.85;3.22;;;;;;;;;;5023813;28;20041;-76
2023/08/09 08:51:58;;;;;;;11.68;3.00;;;;;;;;;;5020792;28;20084;-72
2023/08/09 08:54:24;;;;;;;11.05;3.15;;;;;;;;;;5021423;28;20041;-73
2023/08/09 08:56:49;;;;;;;8.35;2.83;;;;;;;;;;5018711;28;20037;-74
2023/08/09 08:59:15;;;;;;;15.27;3.53;;;;;;;;;;5017724;28;20564;-73
2023/08/09 09:01:42;;;;;;;7.70;3.22;;;;;;;;;;5023565;28;20097;-73
2023/08/09 09:04:08;;;;;;;9.82;2.80;;;;;;;;;;5021978;28;20029;-71
2023/08/09 09:06:33;;;;;;;10.55;3.28;;;;;;;;;;5015830;28;20056;-69
2023/08/09 09:08:59;;;;;;;8.15;3.17;;;;;;;;;;5021257;28;20716;-71
2023/08/09 09:11:27;;;;;;;8.07;3.00;;;;;;;;;;5020300;28;20418;-70
2023/08/09 09:13:52;;;;;;;6.72;3.05;;;;;;;;;;5016501;28;20047;-71
2023/08/09 09:16:19;;;;;;;9.98;3.17;;;;;;;;;;5019773;28;20041;-68
2023/08/09 09:18:46;;;;;;;9.82;2.90;;;;;;;;;;5016356;28;20083;-68
2023/08/09 09:21:12;;;;;;;9.43;3.00;;;;;;;;;;5033280;28;20148;-70
2023/08/09 09:23:37;;;;;;;5.82;2.63;;;;;;;;;;5049398;28;20080;-67
2023/08/09 09:26:08;;;;;;;10.63;3.40;;;;;;;;;;5014415;28;20880;-76
2023/08/09 09:28:41;;;;;;;10.77;3.40;;;;;;;;;;5011275;28;20044;-70
2023/08/09 09:31:06;;;;;;;11.50;3.45;;;;;;;;;;5015159;28;20040;-69
2023/08/09 09:33:33;;;;;;;12.93;4.07;;;;;;;;;;5016417;28;20033;-70
2023/08/09 09:35:58;;;;;;;10.30;3.33;;;;;;;;;;5013836;28;20527;-70
2023/08/09 09:38:24;;;;;;;11.23;3.53;;;;;;;;;;5013735;28;20037;-69
2023/08/09 09:40:49;;;;;;;10.43;3.60;;;;;;;;;;5002345;28;20042;-70
2023/08/09 09:43:15;;;;;;;10.20;3.17;;;;;;;;;;5011700;28;20076;-73
2023/08/09 09:45:44;;;;;;;12.82;2.75;;;;;;;;;;5006741;28;20029;-69
2023/08/09 09:48:18;;;;;;;13.05;3.20;;;;;;;;;;5014026;28;20029;-71
2023/08/09 09:50:44;;;;;;;8.85;3.05;;;;;;;;;;5010753;28;20121;-70
2023/08/09 09:53:14;;;;;;;9.52;2.70;;;;;;;;;;5011306;28;20048;-71
2023/08/09 09:55:43;;;;;;;10.43;2.53;;;;;;;;;;5013490;28;20086;-70
2023/08/09 09:58:08;;;;;;;13.50;2.67;;;;;;;;;;5011542;28;20695;-71
2023/08/09 10:00:34;;;;;;;13.18;2.75;;;;;;;;;;5013616;28;20073;-70
2023/08/09 10:03:04;;;;;;;17.02;2.33;;;;;;;;;;5013544;28;20754;-70
2023/08/09 10:05:47;;;;;;;12.02;2.25;;;;;;;;;;4999801;28;20095;-70
2023/08/09 10:08:13;;;;;;;10.73;2.03;;;;;;;;;;4995369;28;20525;-70
2023/08/09 10:10:39;;;;;;;10.27;2.05;;;;;;;;;;4993813;28;20041;-71
2023/08/09 10:13:05;;;;;;;14.05;2.33;;;;;;;;;;5045594;28;20808;-69
2023/08/09 10:15:41;;;;;;;13.20;1.80;;;;;;;;;;5010276;28;20049;-69
2023/08/09 10:18:10;;;;;;;7.85;2.00;;;;;;;;;;5010682;28;20524;-69
2023/08/09 10:20:47;;;;;;;6.32;1.80;;;;;;;;;;5010342;28;20044;-68
2023/08/09 10:23:22;;;;;;;7.82;1.83;;;;;;;;;;5013776;28;20037;-67
2023/08/09 10:25:48;;;;;;;8.07;2.03;;;;;;;;;;5014113;28;20045;-68
2023/08/09 10:28:14;;;;;;;10.75;1.80;;;;;;;;;;5013507;28;20048;-70
2023/08/09 10:30:44;;;;;;;9.35;1.90;;;;;;;;;;5012214;28;20049;-69
2023/08/09 10:33:09;;;;;;;9.38;1.75;;;;;;;;;;5012593;28;20749;-66
2023/08/09 10:35:45;;;;;;;10.50;1.90;;;;;;;;;;5012254;28;20038;-69
2023/08/09 10:38:34;;;;;;;14.27;2.17;;;;;;;;;;5011055;28;20034;-68
2023/08/09 10:41:06;;;;;;;7.60;2.10;;;;;;;;;;5006755;28;20037;-69
2023/08/09 10:43:35;;;;;;;14.32;2.20;;;;;;;;;;5042729;28;20037;-67
2023/08/09 10:46:19;;;;;;;9.82;2.00;;;;;;;;;;5013018;28;20033;-69
2023/08/09 10:48:49;;;;;;;9.27;1.95;;;;;;;;;;5011643;28;20037;-67
2023/08/09 10:51:14;;;;;;;13.43;1.83;;;;;;;;;;5012960;28;20040;-68
2023/08/09 10:54:09;;;;;;;9.05;1.80;;;;;;;;;;5012950;28;20033;-68
2023/08/09 10:56:47;;;;;;;9.50;2.13;;;;;;;;;;5003323;28;20041;-68
2023/08/09 10:59:15;;;;;;;9.15;1.95;;;;;;;;;;5013589;28;20087;-71
2023/08/09 11:01:40;;;;;;;10.70;2.35;;;;;;;;;;5019224;28;20223;-71
2023/08/09 11:04:07;;;;;;;11.00;2.10;;;;;;;;;;5007640;28;20041;-70
2023/08/09 11:06:33;;;;;;;10.93;2.50;;;;;;;;;;5009700;28;20036;-67
2023/08/09 11:09:12;;;;;;;12.82;1.80;;;;;;;;;;5039945;28;20170;-68
2023/08/09 11:11:42;;;;;;;11.93;1.80;;;;;;;;;;5009073;28;20128;-71
2023/08/09 11:14:08;;;;;;;8.65;2.03;;;;;;;;;;5010296;28;20040;-68
2023/08/09 11:16:34;;;;;;;8.48;2.05;;;;;;;;;;5007704;28;20028;-69
2023/08/09 11:19:05;;;;;;;9.75;1.92;;;;;;;;;;5008943;28;20033;-71
2023/08/09 11:21:40;;;;;;;11.23;2.00;;;;;;;;;;5010330;28;20588;-69
2023/08/09 11:24:07;;;;;;;7.22;1.70;;;;;;;;;;5005972;28;20610;-68
2023/08/09 11:26:33;;;;;;;11.15;2.00;;;;;;;;;;5010074;28;20030;-68
2023/08/09 11:29:00;;;;;;;14.40;2.20;;;;;;;;;;5009015;28;20596;-69
2023/08/09 11:31:25;;;;;;;11.98;2.30;;;;;;;;;;5007089;28;20075;-69
2023/08/09 11:33:55;;;;;;;12.32;2.00;;;;;;;;;;5010705;28;20034;-67
2023/08/09 11:36:20;;;;;;;11.70;2.22;;;;;;;;;;5010284;28;20502;-68
2023/08/09 11:38:46;;;;;;;12.98;2.10;;;;;;;;;;5009314;28;20118;-68
2023/08/09 11:41:15;;;;;;;10.95;2.30;;;;;;;;;;5011023;28;20060;-68
2023/08/09 11:43:40;;;;;;;12.43;2.15;;;;;;;;;;5010120;28;20314;-69
2023/08/09 11:46:05;;;;;;;11.95;1.75;;;;;;;;;;5007921;28;20478;-69
2023/08/09 11:48:34;;;;;;;15.27;2.33;;;;;;;;;;5010179;28;20059;-69
2023/08/09 11:51:11;;;;;;;12.00;2.03;;;;;;;;;;5009116;28;20047;-72
2023/08/09 11:53:37;;;;;;;12.85;2.13;;;;;;;;;;5011341;28;20064;-70
2023/08/09 11:56:05;;;;;;;11.90;1.95;;;;;;;;;;4995181;28;20037;-68
2023/08/09 11:58:34;;;;;;;9.32;1.80;;;;;;;;;;5009378;28;20037;-71
2023/08/09 12:01:10;;;;;;;11.50;2.45;;;;;;;;;;5014205;28;20191;-70
2023/08/09 12:03:37;;;;;;;10.13;1.80;;;;;;;;;;5008259;28;20033;-75
2023/08/09 12:06:03;;;;;;;13.13;2.05;;;;;;;;;;5012750;28;20049;-71
2023/08/09 12:08:34;;;;;;;10.82;2.20;;;;;;;;;;5016639;28;20064;-73
2023/08/09 12:11:00;;;;;;;11.88;2.33;;;;;;;;;;5010810;28;20417;-68
2023/08/09 12:13:25;;;;;;;13.90;2.20;;;;;;;;;;5020109;28;20041;-69
2023/08/09 12:15:51;;;;;;;14.55;2.33;;;;;;;;;;5012130;28;20094;-70
2023/08/09 12:18:16;;;;;;;13.95;2.15;;;;;;;;;;5013818;28;20064;-75
2023/08/09 12:20:41;;;;;;;11.27;1.70;;;;;;;;;;4998276;28;20038;-70
2023/08/09 12:23:07;;;;;;;15.75;2.03;;;;;;;;;;4991591;28;20429;-72
2023/08/09 12:25:32;;;;;;;8.50;1.85;;;;;;;;;;5013457;28;20044;-72
2023/08/09 12:27:58;;;;;;;11.15;1.80;;;;;;;;;;5016402;28;20120;-71
2023/08/09 12:30:24;;;;;;;14.35;2.28;;;;;;;;;;5013987;28;20989;-71
2023/08/09 12:32:51;;;;;;;10.52;1.88;;;;;;;;;;5016438;28;20090;-73
2023/08/09 12:35:17;;;;;;;9.20;1.58;;;;;;;;;;5015769;28;20037;-70
2023/08/09 12:37:43;;;;;;;11.38;2.13;;;;;;;;;;5045911;28;20047;-69
2023/08/09 12:40:09;;;;;;;12.80;2.10;;;;;;;;;;5017142;28;20588;-70
2023/08/09 12:42:36;;;;;;;9.23;1.88;;;;;;;;;;5014171;28;20061;-70
2023/08/09 12:45:04;;;;;;;13.07;1.92;;;;;;;;;;5016369;28;21084;-71
2023/08/09 12:47:29;;;;;;;9.82;1.60;;;;;;;;;;5018522;28;20076;-68
2023/08/09 12:49:55;;;;;;;7.95;1.67;;;;;;;;;;5014610;28;20068;-69
2023/08/09 12:52:22;;;;;;;16.15;2.10;;;;;;;;;;5012888;28;20047;-68
2023/08/09 12:54:48;;;;;;;15.55;1.73;;;;;;;;;;5015110;28;20042;-67
2023/08/09 12:57:13;;;;;;;13.57;1.90;;;;;;;;;;5013412;28;20065;-68
2023/08/09 12:59:44;;;;;;;15.88;2.20;;;;;;;;;;5013088;28;20140;-69
2023/08/09 13:02:10;;;;;;;10.00;1.92;;;;;;;;;;5012397;28;20264;-69
2023/08/09 13:04:36;;;;;;;9.40;1.70;;;;;;;;;;5013967;28;20040;-68
2023/08/09 13:07:01;;;;;;;7.80;1.60;;;;;;;;;;5014954;28;20809;-67
2023/08/09 13:09:27;;;;;;;10.55;2.13;;;;;;;;;;5016012;28;20139;-68
2023/08/09 13:12:03;;;;;;;11.75;1.83;;;;;;;;;;5043077;28;20045;-66
2023/08/09 13:14:28;;;;;;;14.60;2.00;;;;;;;;;;5014843;28;20043;-67
2023/08/09 13:16:54;;;;;;;15.88;2.13;;;;;;;;;;5016720;28;20041;-66
2023/08/09 13:19:19;;;;;;;10.75;1.98;;;;;;;;;;5023077;28;20047;-71
2023/08/09 13:21:44;;;;;;;9.57;1.90;;;;;;;;;;5013405;28;20057;-69
2023/08/09 13:24:12;;;;;;;12.05;1.77;;;;;;;;;;5014811;28;20049;-69
2023/08/09 13:26:40;;;;;;;18.17;2.17;;;;;;;;;;5011854;28;20100;-68
2023/08/09 13:29:05;;;;;;;10.40;1.70;;;;;;;;;;5013956;28;20494;-69
2023/08/09 13:31:31;;;;;;;19.55;2.22;;;;;;;;;;5014436;28;20043;-68
2023/08/09 13:33:58;;;;;;;11.70;1.88;;;;;;;;;;5011548;28;20118;-69
2023/08/09 13:36:24;;;;;;;9.70;1.83;;;;;;;;;;5014819;28;20033;-69
2023/08/09 13:38:49;;;;;;;10.77;1.73;;;;;;;;;;5026398;28;24739;-67
2023/08/09 13:41:14;;;;;;;10.73;1.75;;;;;;;;;;5015061;28;20456;-67
2023/08/09 13:43:40;;;;;;;9.05;1.73;;;;;;;;;;5013828;28;20594;-71
2023/08/09 13:46:06;;;;;;;15.95;1.88;;;;;;;;;;5011650;28;20036;-71
2023/08/09 13:48:31;;;;;;;13.68;1.60;;;;;;;;;;5011159;28;20037;-72
2023/08/09 13:50:56;;;;;;;12.02;1.63;;;;;;;;;;5010188;28;20090;-70
2023/08/09 13:53:22;;;;;;;10.60;1.83;;;;;;;;;;5014679;28;20101;-70
2023/08/09 13:55:49;;;;;;;14.05;2.00;;;;;;;;;;5015496;28;20086;-69
2023/08/09 13:58:15;;;;;;;13.63;2.10;;;;;;;;;;5011270;28;20068;-70
2023/08/09 14:00:40;;;;;;;10.13;1.60;;;;;;;;;;5022139;28;20036;-70
2023/08/09 14:03:07;;;;;;;11.20;1.88;;;;;;;;;;5016451;28;20037;-78
2023/08/09 14:05:32;;;;;;;11.15;1.65;;;;;;;;;;5014043;28;20037;-76
2023/08/09 14:07:58;;;;;;;14.25;2.00;;;;;;;;;;5016891;28;20068;-75
2023/08/09 14:10:23;;;;;;;10.02;1.70;;;;;;;;;;5013405;28;20053;-74
2023/08/09 14:12:51;;;;;;;11.38;1.80;;;;;;;;;;5015009;28;20033;-78
2023/08/09 14:15:16;;;;;;;9.05;1.70;;;;;;;;;;5017304;28;20615;-77
2023/08/09 14:17:41;;;;;;;12.02;2.00;;;;;;;;;;5012754;28;20039;-76
2023/08/09 14:20:08;;;;;;;13.40;1.95;;;;;;;;;;5013819;28;22447;-79
2023/08/09 14:22:33;;;;;;;15.35;2.42;;;;;;;;;;5016357;28;20040;-75
2023/08/09 14:24:58;;;;;;;13.20;2.22;;;;;;;;;;5015008;28;20040;-75
2023/08/09 14:27:24;;;;;;;11.60;2.03;;;;;;;;;;5013689;28;20044;-75
2023/08/09 14:29:49;;;;;;;18.30;2.53;;;;;;;;;;5015819;28;20501;-76
2023/08/09 14:32:14;;;;;;;19.58;2.75;;;;;;;;;;5017445;28;20037;-75